Wetterdaten: Woche 15.08.16 - 21.08.16 (KW33)
Datum Zeit Temp. I. Temp. A. Feuchte I. Feuchte A. Luftdruck Regen Wind Richtung Sonnenschein UV Solar Taupunkt Windchill Windben
15.08.2016 00:00 24,3 C 13,6 C 57 % 92 % 1022,2 hPa 0,0 l/m 0,0 km/h (0 Bft) N 0,00 h 0,0 UV-I 0 W/m 12,3 C 13,6 C 0,0 km/h (0 Bft)
15.08.2016 01:00 24,3 C 12,8 C 57 % 93 % 1022,0 hPa 0,0 l/m 0,0 km/h (0 Bft) N 0,00 h 0,0 UV-I 0 W/m 11,7 C 12,8 C 0,0 km/h (0 Bft)
15.08.2016 02:00 24,2 C 12,1 C 57 % 93 % 1022,0 hPa 0,0 l/m 0,0 km/h (0 Bft) N 0,00 h 0,0 UV-I 0 W/m 11,0 C 12,1 C 0,0 km/h (0 Bft)
15.08.2016 03:00 24,2 C 11,8 C 57 % 92 % 1021,9 hPa 0,0 l/m 0,0 km/h (0 Bft) N 0,00 h 0,0 UV-I 0 W/m 10,6 C 11,8 C 0,0 km/h (0 Bft)
15.08.2016 04:00 24,2 C 11,3 C 58 % 92 % 1021,7 hPa 0,0 l/m 0,0 km/h (0 Bft) N 0,00 h 0,0 UV-I 0 W/m 10,1 C 11,3 C 0,0 km/h (0 Bft)
15.08.2016 05:00 24,2 C 10,8 C 58 % 93 % 1021,7 hPa 0,0 l/m 0,0 km/h (0 Bft) N 0,00 h 0,0 UV-I 0 W/m 9,7 C 10,8 C 0,0 km/h (0 Bft)
15.08.2016 06:00 24,1 C 10,6 C 58 % 93 % 1021,7 hPa 0,0 l/m 0,0 km/h (0 Bft) N 0,00 h 0,0 UV-I 16 W/m 9,6 C 10,6 C 0,0 km/h (0 Bft)
15.08.2016 07:00 24,2 C 11,1 C 58 % 95 % 1021,7 hPa 0,0 l/m 0,0 km/h (0 Bft) N 0,33 h 0,6 UV-I 99 W/m 10,3 C 11,1 C 0,0 km/h (0 Bft)
15.08.2016 08:00 24,4 C 15,2 C 58 % 92 % 1021,6 hPa 0,0 l/m 0,0 km/h (0 Bft) N 1,00 h 1,1 UV-I 318 W/m 13,9 C 15,2 C 0,0 km/h (0 Bft)
15.08.2016 09:00 24,4 C 19,3 C 58 % 76 % 1021,6 hPa 0,0 l/m 0,6 km/h (0 Bft) S-SO 1,00 h 2,1 UV-I 489 W/m 14,9 C 19,3 C 1,6 km/h (1 Bft)
15.08.2016 10:00 24,1 C 21,3 C 57 % 66 % 1021,3 hPa 0,0 l/m 0,7 km/h (0 Bft) O-SO 1,00 h 3,2 UV-I 651 W/m 14,7 C 21,3 C 1,8 km/h (1 Bft)
15.08.2016 11:00 24,0 C 21,7 C 56 % 64 % 1021,0 hPa 0,0 l/m 3,6 km/h (1 Bft) N 1,00 h 3,9 UV-I 563 W/m 14,7 C 21,6 C 6,4 km/h (2 Bft)
15.08.2016 12:00 24,1 C 23,6 C 56 % 56 % 1020,7 hPa 0,0 l/m 2,3 km/h (1 Bft) N-NO 1,00 h 5,5 UV-I 840 W/m 14,2 C 23,5 C 4,4 km/h (1 Bft)
15.08.2016 13:00 24,3 C 24,0 C 56 % 50 % 1020,3 hPa 0,0 l/m 2,1 km/h (1 Bft) N 0,98 h 5,3 UV-I 728 W/m 12,9 C 24,0 C 4,5 km/h (1 Bft)
15.08.2016 14:00 24,5 C 24,6 C 56 % 49 % 1019,9 hPa 0,0 l/m 2,8 km/h (1 Bft) N-NO 1,00 h 4,2 UV-I 631 W/m 13,0 C 24,6 C 6,2 km/h (2 Bft)
15.08.2016 15:00 24,7 C 24,2 C 55 % 49 % 1019,5 hPa 0,0 l/m 1,9 km/h (1 Bft) N-NW 0,88 h 3,2 UV-I 470 W/m 12,8 C 24,2 C 4,7 km/h (1 Bft)
15.08.2016 16:00 24,7 C 24,1 C 55 % 50 % 1019,1 hPa 0,0 l/m 3,9 km/h (1 Bft) W-NW 0,95 h 2,5 UV-I 485 W/m 13,1 C 24,0 C 8,0 km/h (2 Bft)
15.08.2016 17:00 24,6 C 24,0 C 55 % 50 % 1018,7 hPa 0,0 l/m 2,9 km/h (1 Bft) N 1,00 h 1,5 UV-I 361 W/m 13,0 C 24,0 C 6,4 km/h (2 Bft)
15.08.2016 18:00 24,6 C 22,7 C 55 % 53 % 1018,6 hPa 0,0 l/m 4,0 km/h (1 Bft) N 0,17 h 0,6 UV-I 116 W/m 12,5 C 22,7 C 8,6 km/h (2 Bft)
15.08.2016 19:00 24,7 C 21,0 C 55 % 58 % 1018,8 hPa 0,0 l/m 3,9 km/h (1 Bft) N-NO 0,00 h 0,0 UV-I 55 W/m 12,5 C 20,9 C 8,9 km/h (2 Bft)
15.08.2016 20:00 24,6 C 18,9 C 54 % 65 % 1019,2 hPa 0,0 l/m 2,2 km/h (1 Bft) N 0,00 h 0,0 UV-I 18 W/m 12,3 C 18,9 C 5,9 km/h (2 Bft)
15.08.2016 21:00 24,3 C 16,9 C 53 % 74 % 1019,6 hPa 0,0 l/m 0,4 km/h (0 Bft) N 0,00 h 0,0 UV-I 0 W/m 12,2 C 16,9 C 1,4 km/h (1 Bft)
15.08.2016 22:00 24,5 C 15,6 C 54 % 79 % 1019,8 hPa 0,0 l/m 0,0 km/h (0 Bft) N 0,00 h 0,0 UV-I 0 W/m 12,0 C 15,6 C 0,0 km/h (0 Bft)
15.08.2016 23:00 24,3 C 14,6 C 54 % 83 % 1019,9 hPa 0,0 l/m 0,0 km/h (0 Bft) N 0,00 h 0,0 UV-I 0 W/m 11,8 C 14,6 C 0,1 km/h (0 Bft)
16.08.2016 00:00 24,3 C 13,8 C 54 % 85 % 1020,0 hPa 0,0 l/m 0,0 km/h (0 Bft) N 0,00 h 0,0 UV-I 0 W/m 11,4 C 13,8 C 0,1 km/h (0 Bft)
16.08.2016 01:00 24,4 C 13,2 C 55 % 86 % 1019,8 hPa 0,0 l/m 0,0 km/h (0 Bft) N 0,00 h 0,0 UV-I 0 W/m 11,0 C 13,2 C 0,0 km/h (0 Bft)
16.08.2016 02:00 24,6 C 12,6 C 55 % 86 % 1019,3 hPa 0,0 l/m 0,0 km/h (0 Bft) N 0,00 h 0,0 UV-I 0 W/m 10,4 C 12,6 C 0,0 km/h (0 Bft)
16.08.2016 03:00 24,6 C 11,9 C 55 % 88 % 1019,0 hPa 0,0 l/m 0,0 km/h (0 Bft) N 0,00 h 0,0 UV-I 0 W/m 10,0 C 11,9 C 0,0 km/h (0 Bft)
16.08.2016 04:00 24,7 C 11,6 C 55 % 90 % 1018,8 hPa 0,0 l/m 0,0 km/h (0 Bft) N 0,00 h 0,0 UV-I 0 W/m 9,9 C 11,6 C 0,0 km/h (0 Bft)
16.08.2016 05:00 24,7 C 11,5 C 56 % 90 % 1018,6 hPa 0,0 l/m 0,0 km/h (0 Bft) N 0,00 h 0,0 UV-I 0 W/m 9,9 C 11,5 C 0,0 km/h (0 Bft)
16.08.2016 06:00 24,7 C 11,3 C 56 % 90 % 1018,4 hPa 0,0 l/m 0,0 km/h (0 Bft) N 0,00 h 0,0 UV-I 16 W/m 9,8 C 11,3 C 0,0 km/h (0 Bft)
16.08.2016 07:00 24,7 C 11,7 C 56 % 91 % 1018,2 hPa 0,0 l/m 0,6 km/h (0 Bft) N 0,38 h 0,6 UV-I 123 W/m 10,3 C 11,7 C 1,1 km/h (1 Bft)
16.08.2016 08:00 24,7 C 15,4 C 56 % 80 % 1017,9 hPa 0,0 l/m 1,8 km/h (1 Bft) O-NO 1,00 h 1,1 UV-I 329 W/m 11,9 C 15,4 C 3,7 km/h (1 Bft)
16.08.2016 09:00 24,7 C 17,9 C 56 % 63 % 1017,8 hPa 0,0 l/m 4,3 km/h (1 Bft) O-NO 1,00 h 2,1 UV-I 468 W/m 10,9 C 17,6 C 9,2 km/h (2 Bft)
16.08.2016 10:00 24,3 C 19,1 C 52 % 60 % 1017,7 hPa 0,0 l/m 3,3 km/h (1 Bft) N-NO 1,00 h 3,4 UV-I 583 W/m 11,2 C 19,0 C 7,0 km/h (2 Bft)
16.08.2016 11:00 24,1 C 20,3 C 51 % 57 % 1017,2 hPa 0,0 l/m 1,8 km/h (1 Bft) O-SO 1,00 h 4,8 UV-I 757 W/m 11,4 C 20,3 C 4,3 km/h (1 Bft)
16.08.2016 12:00 24,4 C 21,6 C 53 % 54 % 1016,6 hPa 0,0 l/m 1,8 km/h (1 Bft) O-SO 1,00 h 5,5 UV-I 774 W/m 11,9 C 21,6 C 4,7 km/h (1 Bft)
16.08.2016 13:00 24,6 C 22,6 C 52 % 50 % 1015,9 hPa 0,0 l/m 1,4 km/h (1 Bft) W 0,98 h 6,0 UV-I 804 W/m 11,7 C 22,5 C 3,4 km/h (1 Bft)
16.08.2016 14:00 24,6 C 23,2 C 52 % 47 % 1015,5 hPa 0,0 l/m 2,4 km/h (1 Bft) NW 1,00 h 5,3 UV-I 763 W/m 11,2 C 23,1 C 5,7 km/h (1 Bft)
16.08.2016 15:00 24,7 C 23,4 C 51 % 44 % 1014,9 hPa 0,0 l/m 3,7 km/h (1 Bft) NW 1,00 h 4,1 UV-I 664 W/m 10,6 C 23,3 C 7,8 km/h (2 Bft)
16.08.2016 16:00 24,9 C 22,9 C 49 % 46 % 1014,3 hPa 0,0 l/m 3,0 km/h (1 Bft) N 0,70 h 2,5 UV-I 419 W/m 10,5 C 22,8 C 5,8 km/h (2 Bft)
16.08.2016 17:00 24,8 C 22,2 C 49 % 49 % 1014,1 hPa 0,0 l/m 5,6 km/h (1 Bft) N 0,90 h 1,5 UV-I 313 W/m 10,8 C 21,9 C 11,5 km/h (2 Bft)
16.08.2016 18:00 24,7 C 20,5 C 49 % 50 % 1013,8 hPa 0,0 l/m 6,0 km/h (2 Bft) N 0,35 h 0,9 UV-I 102 W/m 9,6 C 20,0 C 12,1 km/h (2 Bft)
16.08.2016 19:00 24,8 C 18,6 C 50 % 55 % 1013,5 hPa 0,0 l/m 1,3 km/h (1 Bft) N 0,00 h 0,0 UV-I 23 W/m 9,5 C 18,6 C 4,0 km/h (1 Bft)
16.08.2016 20:00 24,9 C 17,0 C 50 % 61 % 1013,7 hPa 0,0 l/m 1,2 km/h (1 Bft) N 0,00 h 0,0 UV-I 8 W/m 9,4 C 17,0 C 3,7 km/h (1 Bft)
16.08.2016 21:00 24,8 C 15,6 C 50 % 68 % 1014,1 hPa 0,0 l/m 1,8 km/h (1 Bft) N-NO 0,00 h 0,0 UV-I 0 W/m 9,6 C 15,6 C 4,9 km/h (1 Bft)
16.08.2016 22:00 24,9 C 15,2 C 51 % 71 % 1014,4 hPa 0,0 l/m 0,0 km/h (0 Bft) N 0,00 h 0,0 UV-I 0 W/m 9,9 C 15,2 C 0,2 km/h (0 Bft)
16.08.2016 23:00 24,8 C 14,9 C 52 % 72 % 1014,3 hPa 0,0 l/m 0,0 km/h (0 Bft) N 0,00 h 0,0 UV-I 0 W/m 10,0 C 14,9 C 0,0 km/h (0 Bft)
17.08.2016 00:00 24,7 C 14,1 C 53 % 75 % 1014,2 hPa 0,0 l/m 0,0 km/h (0 Bft) N 0,00 h 0,0 UV-I 0 W/m 9,7 C 14,1 C 0,1 km/h (0 Bft)
17.08.2016 01:00 24,4 C 12,7 C 52 % 80 % 1014,2 hPa 0,0 l/m 0,0 km/h (0 Bft) N 0,00 h 0,0 UV-I 0 W/m 9,4 C 12,7 C 0,0 km/h (0 Bft)
17.08.2016 02:00 24,7 C 11,5 C 52 % 84 % 1013,7 hPa 0,0 l/m 0,0 km/h (0 Bft) N 0,00 h 0,0 UV-I 0 W/m 8,8 C 11,5 C 0,0 km/h (0 Bft)
17.08.2016 03:00 24,9 C 10,5 C 53 % 86 % 1013,7 hPa 0,0 l/m 0,0 km/h (0 Bft) N 0,00 h 0,0 UV-I 0 W/m 8,2 C 10,5 C 0,0 km/h (0 Bft)
17.08.2016 04:00 25,0 C 9,4 C 53 % 89 % 1013,7 hPa 0,0 l/m 0,0 km/h (0 Bft) N 0,00 h 0,0 UV-I 0 W/m 7,6 C 9,4 C 0,0 km/h (0 Bft)
17.08.2016 05:00 25,1 C 8,7 C 54 % 90 % 1013,8 hPa 0,0 l/m 0,0 km/h (0 Bft) N 0,00 h 0,0 UV-I 0 W/m 7,1 C 8,7 C 0,0 km/h (0 Bft)
17.08.2016 06:00 25,1 C 8,0 C 54 % 91 % 1014,0 hPa 0,0 l/m 0,0 km/h (0 Bft) N 0,00 h 0,0 UV-I 12 W/m 6,6 C 8,0 C 0,0 km/h (0 Bft)
17.08.2016 07:00 25,0 C 8,7 C 55 % 93 % 1014,2 hPa 0,0 l/m 0,0 km/h (0 Bft) N 0,50 h 0,6 UV-I 139 W/m 7,6 C 8,7 C 0,0 km/h (0 Bft)
17.08.2016 08:00 24,9 C 13,2 C 54 % 85 % 1014,1 hPa 0,0 l/m 0,5 km/h (0 Bft) N 1,00 h 1,1 UV-I 359 W/m 10,6 C 13,2 C 1,1 km/h (1 Bft)
17.08.2016 09:00 24,8 C 16,1 C 53 % 70 % 1014,1 hPa 0,0 l/m 3,6 km/h (1 Bft) N 1,00 h 2,2 UV-I 525 W/m 10,5 C 15,9 C 7,6 km/h (2 Bft)
17.08.2016 10:00 24,2 C 18,0 C 47 % 57 % 1014,0 hPa 0,0 l/m 1,4 km/h (1 Bft) N-NO 1,00 h 3,5 UV-I 660 W/m 9,3 C 18,0 C 3,3 km/h (1 Bft)
17.08.2016 11:00 23,6 C 19,7 C 45 % 45 % 1013,8 hPa 0,0 l/m 1,4 km/h (1 Bft) N-NO 1,00 h 4,7 UV-I 757 W/m 7,4 C 19,7 C 3,5 km/h (1 Bft)
17.08.2016 12:00 23,7 C 20,4 C 44 % 42 % 1013,5 hPa 0,0 l/m 2,0 km/h (1 Bft) O-NO 1,00 h 5,6 UV-I 804 W/m 7,2 C 20,4 C 4,6 km/h (1 Bft)
17.08.2016 13:00 23,9 C 21,1 C 44 % 41 % 1013,2 hPa 0,0 l/m 0,9 km/h (0 Bft) W-NW 1,00 h 5,8 UV-I 810 W/m 7,1 C 21,1 C 2,9 km/h (1 Bft)
17.08.2016 14:00 24,3 C 21,5 C 45 % 40 % 1012,9 hPa 0,0 l/m 2,1 km/h (1 Bft) N 1,00 h 5,3 UV-I 769 W/m 7,2 C 21,5 C 4,8 km/h (1 Bft)
17.08.2016 15:00 24,2 C 21,8 C 45 % 40 % 1012,4 hPa 0,0 l/m 2,8 km/h (1 Bft) W-NW 1,00 h 4,2 UV-I 683 W/m 7,7 C 21,7 C 5,3 km/h (1 Bft)
17.08.2016 16:00 24,2 C 21,8 C 45 % 40 % 1012,1 hPa 0,0 l/m 1,1 km/h (0 Bft) W-SW 1,00 h 2,8 UV-I 565 W/m 7,7 C 21,8 C 3,2 km/h (1 Bft)
17.08.2016 17:00 24,1 C 21,3 C 45 % 43 % 1011,8 hPa 0,0 l/m 4,0 km/h (1 Bft) N 1,00 h 1,6 UV-I 341 W/m 8,2 C 21,2 C 7,5 km/h (2 Bft)
17.08.2016 18:00 24,2 C 20,3 C 45 % 44 % 1011,6 hPa 0,0 l/m 1,2 km/h (1 Bft) N-NO 0,37 h 0,8 UV-I 112 W/m 7,6 C 20,3 C 3,2 km/h (1 Bft)
17.08.2016 19:00 24,2 C 18,8 C 44 % 51 % 1011,6 hPa 0,0 l/m 2,2 km/h (1 Bft) N-NO 0,00 h 0,0 UV-I 21 W/m 8,3 C 18,7 C 5,4 km/h (1 Bft)
17.08.2016 20:00 24,0 C 16,7 C 44 % 62 % 1011,8 hPa 0,0 l/m 1,6 km/h (1 Bft) N 0,00 h 0,0 UV-I 7 W/m 9,3 C 16,7 C 4,9 km/h (1 Bft)
17.08.2016 21:00 24,4 C 14,8 C 46 % 70 % 1012,2 hPa 0,0 l/m 0,0 km/h (0 Bft) N 0,00 h 0,0 UV-I 0 W/m 9,5 C 14,8 C 0,5 km/h (0 Bft)
17.08.2016 22:00 24,5 C 13,9 C 46 % 74 % 1012,3 hPa 0,0 l/m 0,2 km/h (0 Bft) NO 0,00 h 0,0 UV-I 0 W/m 9,5 C 13,9 C 1,1 km/h (0 Bft)
17.08.2016 23:00 24,3 C 13,0 C 47 % 75 % 1012,3 hPa 0,0 l/m 0,1 km/h (0 Bft) N 0,00 h 0,0 UV-I 0 W/m 8,7 C 13,0 C 0,7 km/h (0 Bft)
18.08.2016 00:00 24,2 C 12,2 C 47 % 78 % 1012,2 hPa 0,0 l/m 1,7 km/h (1 Bft) N-NO 0,00 h 0,0 UV-I 0 W/m 8,5 C 12,2 C 4,4 km/h (1 Bft)
18.08.2016 01:00 24,1 C 11,7 C 48 % 81 % 1011,9 hPa 0,0 l/m 0,6 km/h (0 Bft) N-NO 0,00 h 0,0 UV-I 0 W/m 8,5 C 11,7 C 2,3 km/h (1 Bft)
18.08.2016 02:00 24,1 C 10,9 C 48 % 81 % 1011,3 hPa 0,0 l/m 0,0 km/h (0 Bft) N 0,00 h 0,0 UV-I 0 W/m 7,9 C 10,9 C 0,0 km/h (0 Bft)
18.08.2016 03:00 24,1 C 9,7 C 49 % 85 % 1011,0 hPa 0,0 l/m 0,6 km/h (0 Bft) N 0,00 h 0,0 UV-I 0 W/m 7,3 C 9,7 C 1,4 km/h (1 Bft)
18.08.2016 04:00 24,1 C 9,0 C 49 % 88 % 1010,8 hPa 0,0 l/m 0,0 km/h (0 Bft) N-NW 0,00 h 0,0 UV-I 0 W/m 7,2 C 9,0 C 0,1 km/h (0 Bft)
18.08.2016 05:00 24,0 C 8,3 C 50 % 89 % 1010,7 hPa 0,0 l/m 0,0 km/h (0 Bft) N 0,00 h 0,0 UV-I 0 W/m 6,6 C 8,3 C 0,0 km/h (0 Bft)
18.08.2016 06:00 24,0 C 7,3 C 50 % 89 % 1010,6 hPa 0,0 l/m 0,0 km/h (0 Bft) N 0,00 h 0,0 UV-I 11 W/m 5,7 C 7,3 C 0,0 km/h (0 Bft)
18.08.2016 07:00 24,1 C 7,8 C 50 % 93 % 1010,3 hPa 0,0 l/m 0,0 km/h (0 Bft) N 0,50 h 0,6 UV-I 138 W/m 6,7 C 7,8 C 0,0 km/h (0 Bft)
18.08.2016 08:00 24,3 C 12,6 C 50 % 86 % 1010,0 hPa 0,0 l/m 0,0 km/h (0 Bft) N 1,00 h 1,1 UV-I 350 W/m 10,3 C 12,6 C 0,0 km/h (0 Bft)
18.08.2016 09:00 24,3 C 16,6 C 49 % 70 % 1009,9 hPa 0,0 l/m 0,0 km/h (0 Bft) N 1,00 h 2,0 UV-I 508 W/m 10,9 C 16,6 C 0,0 km/h (0 Bft)
18.08.2016 10:00 23,7 C 19,4 C 47 % 58 % 1009,6 hPa 0,0 l/m 0,1 km/h (0 Bft) O-SO 1,00 h 3,2 UV-I 641 W/m 10,9 C 19,4 C 0,3 km/h (0 Bft)
18.08.2016 11:00 23,7 C 21,5 C 47 % 48 % 1009,6 hPa 0,0 l/m 1,7 km/h (1 Bft) S 1,00 h 4,4 UV-I 739 W/m 10,1 C 21,5 C 3,9 km/h (1 Bft)
18.08.2016 12:00 23,9 C 22,7 C 47 % 45 % 1009,2 hPa 0,0 l/m 2,8 km/h (1 Bft) W-SW 1,00 h 5,1 UV-I 733 W/m 10,2 C 22,6 C 5,8 km/h (2 Bft)
18.08.2016 13:00 24,2 C 23,4 C 48 % 42 % 1008,8 hPa 0,0 l/m 4,4 km/h (1 Bft) W 1,00 h 5,1 UV-I 797 W/m 9,6 C 23,3 C 8,5 km/h (2 Bft)
18.08.2016 14:00 24,3 C 24,3 C 48 % 40 % 1008,5 hPa 0,0 l/m 3,3 km/h (1 Bft) W-SW 1,00 h 4,9 UV-I 792 W/m 9,6 C 24,1 C 6,6 km/h (2 Bft)
18.08.2016 15:00 24,4 C 24,5 C 48 % 36 % 1008,1 hPa 0,0 l/m 3,7 km/h (1 Bft) W-SW 1,00 h 3,9 UV-I 681 W/m 8,6 C 24,4 C 8,0 km/h (2 Bft)
18.08.2016 16:00 24,5 C 24,5 C 48 % 36 % 1007,9 hPa 0,0 l/m 4,3 km/h (1 Bft) W 0,98 h 2,7 UV-I 551 W/m 8,4 C 24,4 C 8,5 km/h (2 Bft)
18.08.2016 17:00 24,5 C 23,9 C 48 % 36 % 1007,8 hPa 0,0 l/m 2,9 km/h (1 Bft) W-NW 0,98 h 1,5 UV-I 333 W/m 7,8 C 23,8 C 6,5 km/h (2 Bft)
18.08.2016 18:00 24,7 C 22,6 C 48 % 35 % 1008,1 hPa 0,0 l/m 1,2 km/h (1 Bft) W 0,03 h 0,6 UV-I 87 W/m 6,3 C 22,6 C 2,9 km/h (1 Bft)
18.08.2016 19:00 24,9 C 21,2 C 48 % 43 % 1008,4 hPa 0,0 l/m 0,7 km/h (0 Bft) W 0,00 h 0,0 UV-I 43 W/m 8,1 C 21,2 C 2,6 km/h (1 Bft)
18.08.2016 20:00 24,8 C 18,9 C 48 % 57 % 1008,9 hPa 0,0 l/m 0,0 km/h (0 Bft) N 0,00 h 0,0 UV-I 11 W/m 10,1 C 18,9 C 0,1 km/h (0 Bft)
18.08.2016 21:00 24,8 C 15,8 C 48 % 72 % 1009,4 hPa 0,0 l/m 0,0 km/h (0 Bft) N 0,00 h 0,0 UV-I 0 W/m 10,6 C 15,8 C 0,0 km/h (0 Bft)
18.08.2016 22:00 24,9 C 14,1 C 49 % 79 % 1009,7 hPa 0,0 l/m 0,0 km/h (0 Bft) N 0,00 h 0,0 UV-I 0 W/m 10,4 C 14,1 C 0,0 km/h (0 Bft)
18.08.2016 23:00 24,9 C 12,8 C 49 % 81 % 1009,8 hPa 0,0 l/m 0,0 km/h (0 Bft) N 0,00 h 0,0 UV-I 0 W/m 9,7 C 12,8 C 0,0 km/h (0 Bft)
19.08.2016 00:00 24,7 C 11,5 C 49 % 84 % 1010,2 hPa 0,0 l/m 0,0 km/h (0 Bft) N 0,00 h 0,0 UV-I 0 W/m 8,8 C 11,5 C 0,0 km/h (0 Bft)
19.08.2016 01:00 24,6 C 10,6 C 49 % 86 % 1010,4 hPa 0,0 l/m 0,3 km/h (0 Bft) W 0,00 h 0,0 UV-I 0 W/m 8,3 C 10,6 C 0,6 km/h (0 Bft)
19.08.2016 02:00 24,4 C 10,0 C 50 % 87 % 1010,4 hPa 0,0 l/m 0,0 km/h (0 Bft) N 0,00 h 0,0 UV-I 0 W/m 7,9 C 10,0 C 0,2 km/h (0 Bft)
19.08.2016 03:00 24,4 C 9,3 C 50 % 88 % 1010,4 hPa 0,0 l/m 0,0 km/h (0 Bft) SW 0,00 h 0,0 UV-I 0 W/m 7,4 C 9,3 C 0,2 km/h (0 Bft)
19.08.2016 04:00 24,4 C 8,5 C 50 % 89 % 1010,3 hPa 0,0 l/m 0,0 km/h (0 Bft) N 0,00 h 0,0 UV-I 0 W/m 6,8 C 8,5 C 0,0 km/h (0 Bft)
19.08.2016 05:00 24,3 C 7,8 C 50 % 90 % 1010,6 hPa 0,0 l/m 0,0 km/h (0 Bft) N 0,00 h 0,0 UV-I 0 W/m 6,2 C 7,8 C 0,0 km/h (0 Bft)
19.08.2016 06:00 24,3 C 7,3 C 51 % 90 % 1011,1 hPa 0,0 l/m 0,0 km/h (0 Bft) N 0,00 h 0,0 UV-I 12 W/m 5,9 C 7,3 C 0,0 km/h (0 Bft)
19.08.2016 07:00 24,3 C 8,1 C 51 % 93 % 1011,5 hPa 0,0 l/m 0,0 km/h (0 Bft) N 0,53 h 0,5 UV-I 138 W/m 7,0 C 8,1 C 0,0 km/h (0 Bft)
19.08.2016 08:00 24,3 C 12,8 C 49 % 84 % 1011,7 hPa 0,0 l/m 0,0 km/h (0 Bft) N 1,00 h 1,0 UV-I 321 W/m 10,2 C 12,8 C 0,0 km/h (0 Bft)
19.08.2016 09:00 24,0 C 16,9 C 49 % 72 % 1011,6 hPa 0,0 l/m 0,0 km/h (0 Bft) N 1,00 h 2,0 UV-I 495 W/m 11,8 C 16,9 C 0,0 km/h (0 Bft)
19.08.2016 10:00 24,2 C 20,5 C 50 % 64 % 1011,5 hPa 0,0 l/m 2,3 km/h (1 Bft) W-SW 1,00 h 3,2 UV-I 625 W/m 13,4 C 20,5 C 4,8 km/h (1 Bft)
19.08.2016 11:00 24,3 C 22,5 C 50 % 54 % 1011,7 hPa 0,0 l/m 3,6 km/h (1 Bft) S 1,00 h 4,3 UV-I 713 W/m 12,7 C 22,4 C 8,1 km/h (2 Bft)
19.08.2016 12:00 24,6 C 23,5 C 50 % 48 % 1011,7 hPa 0,0 l/m 5,4 km/h (1 Bft) S 1,00 h 5,1 UV-I 758 W/m 11,8 C 23,2 C 10,5 km/h (2 Bft)
19.08.2016 13:00 24,7 C 23,9 C 50 % 52 % 1011,4 hPa 0,0 l/m 3,8 km/h (1 Bft) W-SW 0,83 h 4,6 UV-I 644 W/m 13,4 C 23,8 C 8,6 km/h (2 Bft)
19.08.2016 14:00 24,7 C 24,4 C 50 % 50 % 1011,2 hPa 0,0 l/m 3,0 km/h (1 Bft) S 0,93 h 4,3 UV-I 692 W/m 13,3 C 24,3 C 7,1 km/h (2 Bft)
19.08.2016 15:00 24,6 C 24,7 C 50 % 48 % 1011,0 hPa 0,0 l/m 3,0 km/h (1 Bft) S 0,83 h 3,1 UV-I 525 W/m 13,0 C 24,7 C 7,4 km/h (2 Bft)
19.08.2016 16:00 24,8 C 24,2 C 50 % 51 % 1010,9 hPa 0,0 l/m 4,6 km/h (1 Bft) S 0,92 h 1,9 UV-I 381 W/m 13,4 C 24,0 C 8,8 km/h (2 Bft)
19.08.2016 17:00 24,9 C 23,8 C 50 % 53 % 1010,9 hPa 0,0 l/m 4,5 km/h (1 Bft) S 1,00 h 1,4 UV-I 306 W/m 13,6 C 23,7 C 8,9 km/h (2 Bft)
19.08.2016 18:00 24,9 C 23,2 C 50 % 54 % 1010,9 hPa 0,0 l/m 1,4 km/h (1 Bft) S 0,28 h 0,6 UV-I 112 W/m 13,4 C 23,2 C 4,7 km/h (1 Bft)
19.08.2016 19:00 25,0 C 22,1 C 50 % 58 % 1011,2 hPa 0,0 l/m 1,1 km/h (0 Bft) S 0,00 h 0,0 UV-I 27 W/m 13,4 C 22,1 C 2,3 km/h (1 Bft)
19.08.2016 20:00 25,0 C 20,5 C 51 % 65 % 1011,5 hPa 0,0 l/m 0,0 km/h (0 Bft) N 0,00 h 0,0 UV-I 8 W/m 13,5 C 20,5 C 0,0 km/h (0 Bft)
19.08.2016 21:00 25,1 C 18,3 C 51 % 76 % 1012,0 hPa 0,0 l/m 0,0 km/h (0 Bft) N 0,00 h 0,0 UV-I 0 W/m 13,9 C 18,3 C 0,0 km/h (0 Bft)
19.08.2016 22:00 25,2 C 16,9 C 52 % 83 % 1012,2 hPa 0,0 l/m 0,0 km/h (0 Bft) N 0,00 h 0,0 UV-I 0 W/m 13,9 C 16,9 C 0,0 km/h (0 Bft)
19.08.2016 23:00 24,9 C 16,2 C 52 % 84 % 1012,4 hPa 0,0 l/m 0,0 km/h (0 Bft) N 0,00 h 0,0 UV-I 0 W/m 13,6 C 16,2 C 0,0 km/h (0 Bft)
20.08.2016 00:00 24,7 C 15,5 C 52 % 85 % 1012,5 hPa 0,0 l/m 0,0 km/h (0 Bft) N 0,00 h 0,0 UV-I 0 W/m 13,1 C 15,5 C 0,0 km/h (0 Bft)
20.08.2016 01:00 24,6 C 14,7 C 53 % 88 % 1012,5 hPa 0,0 l/m 0,0 km/h (0 Bft) N 0,00 h 0,0 UV-I 0 W/m 12,7 C 14,7 C 0,0 km/h (0 Bft)
20.08.2016 02:00 24,6 C 14,5 C 53 % 90 % 1012,5 hPa 0,0 l/m 0,0 km/h (0 Bft) N 0,00 h 0,0 UV-I 0 W/m 12,8 C 14,5 C 0,0 km/h (0 Bft)
20.08.2016 03:00 24,5 C 14,7 C 53 % 91 % 1012,3 hPa 0,0 l/m 0,0 km/h (0 Bft) N 0,00 h 0,0 UV-I 0 W/m 13,2 C 14,7 C 0,0 km/h (0 Bft)
20.08.2016 04:00 24,5 C 14,8 C 53 % 91 % 1012,6 hPa 0,0 l/m 0,0 km/h (0 Bft) N 0,00 h 0,0 UV-I 0 W/m 13,3 C 14,8 C 0,0 km/h (0 Bft)
20.08.2016 05:00 24,5 C 14,9 C 53 % 91 % 1012,8 hPa 0,0 l/m 0,0 km/h (0 Bft) N 0,00 h 0,0 UV-I 0 W/m 13,5 C 14,9 C 0,0 km/h (0 Bft)
20.08.2016 06:00 24,5 C 15,2 C 54 % 92 % 1012,8 hPa 0,0 l/m 0,0 km/h (0 Bft) S 0,00 h 0,0 UV-I 10 W/m 13,9 C 15,2 C 0,2 km/h (0 Bft)
20.08.2016 07:00 24,4 C 15,6 C 54 % 93 % 1013,1 hPa 0,0 l/m 0,0 km/h (0 Bft) N 0,00 h 0,5 UV-I 50 W/m 14,4 C 15,6 C 0,0 km/h (0 Bft)
20.08.2016 08:00 24,5 C 17,0 C 54 % 91 % 1013,3 hPa 0,0 l/m 0,0 km/h (0 Bft) N 0,05 h 0,7 UV-I 105 W/m 15,5 C 17,0 C 0,0 km/h (0 Bft)
20.08.2016 09:00 24,6 C 19,3 C 55 % 82 % 1013,2 hPa 0,0 l/m 0,5 km/h (0 Bft) SO 0,97 h 1,6 UV-I 261 W/m 16,1 C 19,3 C 1,5 km/h (1 Bft)
20.08.2016 10:00 24,5 C 21,6 C 56 % 71 % 1013,0 hPa 0,0 l/m 1,1 km/h (1 Bft) S 1,00 h 2,9 UV-I 471 W/m 16,1 C 21,6 C 3,5 km/h (1 Bft)
20.08.2016 11:00 24,6 C 23,9 C 55 % 58 % 1013,0 hPa 0,0 l/m 5,1 km/h (1 Bft) S 1,00 h 4,3 UV-I 679 W/m 15,2 C 23,7 C 10,3 km/h (2 Bft)
20.08.2016 12:00 24,8 C 25,3 C 53 % 47 % 1012,9 hPa 0,0 l/m 6,5 km/h (2 Bft) S 1,00 h 5,4 UV-I 717 W/m 13,2 C 25,0 C 11,4 km/h (2 Bft)
20.08.2016 13:00 24,7 C 25,9 C 52 % 46 % 1012,7 hPa 0,0 l/m 4,4 km/h (1 Bft) S-SO 1,00 h 4,9 UV-I 658 W/m 13,5 C 25,8 C 9,8 km/h (2 Bft)
20.08.2016 14:00 24,7 C 25,8 C 52 % 43 % 1012,8 hPa 0,0 l/m 5,0 km/h (1 Bft) S 1,00 h 3,7 UV-I 486 W/m 12,3 C 25,7 C 10,1 km/h (2 Bft)
20.08.2016 15:00 24,7 C 25,6 C 51 % 45 % 1012,5 hPa 0,0 l/m 3,3 km/h (1 Bft) S-SO 1,00 h 2,7 UV-I 379 W/m 12,7 C 25,5 C 7,4 km/h (2 Bft)
20.08.2016 16:00 24,7 C 25,3 C 51 % 45 % 1012,4 hPa 0,0 l/m 4,1 km/h (1 Bft) S 1,00 h 1,6 UV-I 226 W/m 12,4 C 25,3 C 8,3 km/h (2 Bft)
20.08.2016 17:00 24,7 C 24,4 C 51 % 49 % 1012,8 hPa 0,0 l/m 4,7 km/h (1 Bft) W-SW 0,02 h 0,7 UV-I 52 W/m 13,1 C 24,1 C 9,2 km/h (2 Bft)
20.08.2016 18:00 24,5 C 18,9 C 54 % 84 % 1013,7 hPa 1,0 l/m 1,9 km/h (1 Bft) S-SW 0,00 h 0,0 UV-I 31 W/m 16,1 C 18,8 C 4,3 km/h (1 Bft)
20.08.2016 19:00 24,5 C 18,0 C 57 % 92 % 1013,3 hPa 0,0 l/m 0,0 km/h (0 Bft) O-SO 0,00 h 0,0 UV-I 16 W/m 16,6 C 18,0 C 0,2 km/h (0 Bft)
20.08.2016 20:00 24,8 C 17,8 C 57 % 93 % 1013,4 hPa 0,0 l/m 0,0 km/h (0 Bft) N 0,00 h 0,0 UV-I 5 W/m 16,7 C 17,8 C 0,1 km/h (0 Bft)
20.08.2016 21:00 25,1 C 17,6 C 57 % 94 % 1014,0 hPa 0,0 l/m 0,1 km/h (0 Bft) W-SW 0,00 h 0,0 UV-I 0 W/m 16,6 C 17,6 C 0,4 km/h (0 Bft)
20.08.2016 22:00 24,8 C 17,7 C 57 % 94 % 1014,5 hPa 0,2 l/m 0,0 km/h (0 Bft) N 0,00 h 0,0 UV-I 0 W/m 16,7 C 17,7 C 0,2 km/h (0 Bft)
20.08.2016 23:00 24,8 C 17,5 C 57 % 94 % 1014,6 hPa 0,2 l/m 0,0 km/h (0 Bft) N 0,00 h 0,0 UV-I 0 W/m 16,5 C 17,5 C 0,1 km/h (0 Bft)
21.08.2016 00:00 24,8 C 16,9 C 57 % 93 % 1014,9 hPa 0,8 l/m 3,8 km/h (1 Bft) NW 0,00 h 0,0 UV-I 0 W/m 15,7 C 16,7 C 8,7 km/h (2 Bft)
21.08.2016 01:00 24,8 C 15,8 C 57 % 93 % 1014,9 hPa 1,8 l/m 0,4 km/h (0 Bft) N-NW 0,00 h 0,0 UV-I 0 W/m 14,7 C 15,8 C 1,0 km/h (0 Bft)
21.08.2016 02:00 24,7 C 15,4 C 58 % 94 % 1015,1 hPa 0,2 l/m 0,0 km/h (0 Bft) W-SW 0,00 h 0,0 UV-I 0 W/m 14,5 C 15,4 C 0,3 km/h (0 Bft)
21.08.2016 03:00 24,7 C 15,3 C 58 % 95 % 1015,3 hPa 0,0 l/m 2,2 km/h (1 Bft) W-NW 0,00 h 0,0 UV-I 0 W/m 14,6 C 15,3 C 5,5 km/h (1 Bft)
21.08.2016 04:00 24,6 C 14,9 C 58 % 95 % 1015,5 hPa 0,0 l/m 1,3 km/h (1 Bft) W-SW 0,00 h 0,0 UV-I 0 W/m 14,0 C 14,9 C 4,1 km/h (1 Bft)
21.08.2016 05:00 24,6 C 14,4 C 58 % 94 % 1015,9 hPa 0,0 l/m 0,5 km/h (0 Bft) W 0,00 h 0,0 UV-I 0 W/m 13,4 C 14,4 C 2,2 km/h (1 Bft)
21.08.2016 06:00 24,6 C 13,8 C 58 % 94 % 1016,6 hPa 0,0 l/m 0,1 km/h (0 Bft) S-SW 0,00 h 0,0 UV-I 9 W/m 12,8 C 13,8 C 0,6 km/h (0 Bft)
21.08.2016 07:00 24,6 C 13,6 C 58 % 94 % 1017,1 hPa 0,0 l/m 1,1 km/h (1 Bft) S-SW 0,00 h 0,0 UV-I 37 W/m 12,8 C 13,6 C 3,1 km/h (1 Bft)
21.08.2016 08:00 24,5 C 13,5 C 58 % 94 % 1017,9 hPa 0,0 l/m 2,1 km/h (1 Bft) SW 0,00 h 0,6 UV-I 37 W/m 12,6 C 13,5 C 5,9 km/h (2 Bft)
21.08.2016 09:00 24,4 C 14,5 C 57 % 90 % 1017,7 hPa 0,0 l/m 3,1 km/h (1 Bft) SW 0,47 h 1,5 UV-I 180 W/m 12,9 C 14,5 C 5,6 km/h (1 Bft)
21.08.2016 10:00 24,4 C 16,4 C 56 % 82 % 1017,8 hPa 0,0 l/m 6,1 km/h (2 Bft) W-SW 1,00 h 3,0 UV-I 477 W/m 13,2 C 15,8 C 11,3 km/h (2 Bft)
21.08.2016 11:00 24,4 C 17,8 C 55 % 76 % 1017,9 hPa 0,0 l/m 4,0 km/h (1 Bft) S 0,97 h 3,2 UV-I 488 W/m 13,4 C 17,6 C 9,4 km/h (2 Bft)
21.08.2016 12:00 24,3 C 18,8 C 54 % 72 % 1017,9 hPa 0,0 l/m 5,5 km/h (1 Bft) W-SW 1,00 h 4,1 UV-I 566 W/m 13,5 C 18,5 C 11,3 km/h (2 Bft)
21.08.2016 13:00 24,2 C 19,9 C 53 % 64 % 1017,7 hPa 0,0 l/m 6,7 km/h (2 Bft) W-SW 0,92 h 4,4 UV-I 638 W/m 12,9 C 19,3 C 13,8 km/h (3 Bft)
21.08.2016 14:00 24,3 C 20,2 C 52 % 57 % 1017,8 hPa 0,0 l/m 7,0 km/h (2 Bft) W-SW 0,88 h 3,2 UV-I 442 W/m 11,3 C 19,3 C 15,0 km/h (3 Bft)
21.08.2016 15:00 24,2 C 17,0 C 49 % 60 % 1018,3 hPa 0,0 l/m 2,6 km/h (1 Bft) S 1,00 h 2,1 UV-I 299 W/m 9,3 C 16,9 C 7,3 km/h (2 Bft)
21.08.2016 16:00 24,2 C 17,8 C 49 % 65 % 1018,5 hPa 0,0 l/m 4,5 km/h (1 Bft) S 0,87 h 1,8 UV-I 275 W/m 11,1 C 17,6 C 9,9 km/h (2 Bft)
21.08.2016 17:00 24,1 C 17,7 C 50 % 71 % 1018,6 hPa 0,0 l/m 2,4 km/h (1 Bft) S 0,53 h 1,0 UV-I 185 W/m 12,4 C 17,6 C 7,1 km/h (2 Bft)
21.08.2016 18:00 24,0 C 18,8 C 51 % 63 % 1018,9 hPa 0,0 l/m 5,9 km/h (2 Bft) W-NW 0,32 h 0,6 UV-I 130 W/m 11,5 C 18,1 C 11,8 km/h (2 Bft)
21.08.2016 19:00 24,1 C 17,6 C 50 % 58 % 1019,8 hPa 0,0 l/m 2,4 km/h (1 Bft) W 0,00 h 0,0 UV-I 22 W/m 9,3 C 17,4 C 6,6 km/h (2 Bft)
21.08.2016 20:00 24,3 C 15,8 C 49 % 66 % 1020,7 hPa 0,0 l/m 1,2 km/h (1 Bft) W 0,00 h 0,0 UV-I 6 W/m 9,4 C 15,8 C 4,0 km/h (1 Bft)
21.08.2016 21:00 24,4 C 14,3 C 49 % 73 % 1021,6 hPa 0,0 l/m 0,0 km/h (0 Bft) N 0,00 h 0,0 UV-I 0 W/m 9,6 C 14,3 C 0,1 km/h (0 Bft)
21.08.2016 22:00 24,5 C 13,4 C 50 % 79 % 1022,2 hPa 0,0 l/m 0,0 km/h (0 Bft) N 0,00 h 0,0 UV-I 0 W/m 9,8 C 13,4 C 0,0 km/h (0 Bft)
21.08.2016 23:00 24,4 C 12,7 C 50 % 82 % 1022,8 hPa 0,0 l/m 0,0 km/h (0 Bft) N 0,00 h 0,0 UV-I 0 W/m 9,8 C 12,7 C 0,0 km/h (0 Bft)
Min-Datum _ 17.08.16 18.08.16 17.08.16 18.08.16 18.08.16 - 15.08.16 - - - - 17.08.16 18.08.16 15.08.16
_ Min-Zeit 11:22 06:58 12:42 15:49 17:01 - 00:00 - - - - 13:51 06:58 00:00
Minimum _ 23,5 C 7,0 C 42 % 32 % 1007,8 hPa - 0,0 km/h (0 Bft) - - - - 4,6 C 7,0 C 0,0 km/h (0 Bft)
Max-Datum _ 19.08.16 20.08.16 15.08.16 15.08.16 21.08.16 21.08.16 21.08.16 - 15.08.16 16.08.16 21.08.16 20.08.16 20.08.16 21.08.16
_ Max-Zeit 21:35 13:38 03:59 08:01 23:49 01:02 14:52 - 09:06 13:13 12:26 10:40 13:34 14:52
Maximum _ 25,2 C 26,5 C 58 % 97 % 1023,0 hPa 1,8 l/m 22,5 km/h
W-SW (4 Bft)
- 0,03 h 6,3 UV-I 1055 W/m 17,4 C 26,4 C 41,8 km/h
W-SW (6 Bft)
Durchschnitt _ 24,5 C 17,0 C 52 % 71 % 1014,6 hPa #4,2 l/m 1,5 km/h (1 Bft) S #68:19 h 2,8 UV-I 368 W/m 11,1 C 17,0 C 3,4 km/h (1 Bft)